Time;durP1;ratioP1;P1;durP2;ratioP2;P2;SDS_P1;SDS_P2;PMS_P1;PMS_P2;Temp;Humidity;BMP_temperature;BMP_pressure;BME280_temperature;BME280_humidity;BME280_pressure;Samples;Min_cycle;Max_cycle;Signal;HPM_P1;HPM_P2
2021/06/24 00:04:07;;;;;;;7.83;7.17;;;22.80;42.10;;;;;;10492341;28;20243;-76
2021/06/24 00:09:12;;;;;;;5.60;5.00;;;22.70;41.90;;;;;;10492332;28;20232;-75
2021/06/24 00:14:15;;;;;;;3.43;3.23;;;22.70;42.40;;;;;;10492280;28;20228;-76
2021/06/24 00:19:18;;;;;;;2.43;2.23;;;22.60;41.50;;;;;;10491553;28;20224;-76
2021/06/24 00:24:23;;;;;;;2.50;2.30;;;22.50;41.10;;;;;;10491897;28;20232;-77
2021/06/24 00:29:26;;;;;;;2.17;2.07;;;22.50;41.60;;;;;;10491543;28;20234;-76
2021/06/24 00:34:30;;;;;;;2.10;1.90;;;22.30;40.90;;;;;;10491686;28;20220;-77
2021/06/24 00:39:34;;;;;;;2.60;1.90;;;22.10;41.00;;;;;;10491369;28;20232;-76
2021/06/24 00:44:37;;;;;;;2.00;1.80;;;22.00;41.70;;;;;;10452471;28;20298;-76
2021/06/24 00:49:41;;;;;;;1.70;1.60;;;21.90;41.40;;;;;;10449769;28;20220;-76
2021/06/24 00:54:46;;;;;;;1.63;1.53;;;21.90;41.60;;;;;;10449626;28;20220;-76
2021/06/24 00:59:50;;;;;;;1.27;1.27;;;21.90;42.20;;;;;;10449539;28;20225;-76
2021/06/24 01:04:53;;;;;;;2.07;1.77;;;21.80;41.50;;;;;;10449475;28;20255;-76
2021/06/24 01:09:58;;;;;;;1.97;1.67;;;21.80;41.70;;;;;;10449310;28;20749;-75
2021/06/24 01:15:01;;;;;;;3.00;1.83;;;21.80;42.00;;;;;;10449422;28;20220;-76
2021/06/24 01:20:06;;;;;;;1.60;1.50;;;21.80;41.90;;;;;;10448287;28;20701;-75
2021/06/24 01:25:12;;;;;;;1.77;1.67;;;21.80;41.80;;;;;;10449064;28;20245;-76
2021/06/24 01:30:16;;;;;;;1.93;1.83;;;21.70;42.10;;;;;;10448790;28;20232;-76
2021/06/24 01:35:22;;;;;;;2.97;1.93;;;21.50;41.60;;;;;;10448714;28;20716;-76
2021/06/24 01:40:27;;;;;;;4.27;2.20;;;21.40;42.40;;;;;;10448668;28;20232;-75
2021/06/24 01:45:32;;;;;;;2.20;2.00;;;21.40;42.40;;;;;;10448796;28;20293;-76
2021/06/24 01:50:36;;;;;;;4.20;2.40;;;21.30;41.80;;;;;;10448589;28;20232;-76
2021/06/24 01:55:41;;;;;;;3.50;2.10;;;21.20;41.80;;;;;;10448571;28;20221;-75
2021/06/24 02:00:45;;;;;;;2.70;2.40;;;21.10;42.70;;;;;;10447940;28;20225;-76
2021/06/24 02:05:50;;;;;;;3.40;2.40;;;21.00;42.50;;;;;;10452574;28;20921;-76
2021/06/24 02:10:57;;;;;;;2.40;2.13;;;21.00;42.90;;;;;;10455772;28;20224;-75
2021/06/24 02:16:00;;;;;;;2.33;2.20;;;21.00;43.40;;;;;;10464270;28;20220;-76
2021/06/24 02:21:04;;;;;;;2.83;2.10;;;20.90;42.70;;;;;;10496583;28;20224;-75
2021/06/24 02:26:08;;;;;;;2.20;2.10;;;21.00;42.90;;;;;;10496677;28;20696;-76
2021/06/24 02:31:12;;;;;;;1.97;1.87;;;21.00;43.60;;;;;;10496395;28;20229;-76
2021/06/24 02:36:15;;;;;;;2.10;2.00;;;21.00;43.00;;;;;;10469215;28;20295;-75
2021/06/24 02:41:20;;;;;;;2.07;1.97;;;21.00;43.20;;;;;;10457397;28;20243;-75
2021/06/24 02:46:23;;;;;;;1.90;1.80;;;21.10;44.40;;;;;;10496323;28;20224;-75
2021/06/24 02:51:26;;;;;;;2.20;2.00;;;21.10;43.20;;;;;;10458989;28;20263;-76
2021/06/24 02:56:33;;;;;;;3.37;1.80;;;21.10;43.30;;;;;;10454498;28;20221;-74
2021/06/24 03:01:37;;;;;;;2.27;2.07;;;21.10;44.20;;;;;;10453978;28;20248;-76
2021/06/24 03:06:40;;;;;;;3.30;1.90;;;21.00;43.20;;;;;;10453824;28;20625;-75
2021/06/24 03:11:45;;;;;;;2.07;1.97;;;21.00;43.20;;;;;;10453645;28;20240;-76
2021/06/24 03:16:49;;;;;;;2.13;1.83;;;21.00;44.10;;;;;;10452983;28;20708;-76
2021/06/24 03:21:52;;;;;;;2.07;1.97;;;21.00;43.50;;;;;;10453187;28;20556;-76
2021/06/24 03:26:57;;;;;;;2.10;2.00;;;21.00;43.40;;;;;;10452809;28;20239;-74
2021/06/24 03:32:00;;;;;;;2.20;2.00;;;21.00;43.90;;;;;;10469217;28;20232;-75
2021/06/24 03:37:05;;;;;;;1.97;1.87;;;21.00;43.40;;;;;;10452146;28;20225;-75
2021/06/24 03:42:10;;;;;;;2.23;2.10;;;21.00;43.60;;;;;;10469856;28;20715;-75
2021/06/24 03:47:13;;;;;;;3.07;1.97;;;21.00;43.90;;;;;;10493490;28;20233;-76
2021/06/24 03:52:17;;;;;;;2.40;2.20;;;21.00;43.40;;;;;;10493462;28;20228;-75
2021/06/24 03:57:22;;;;;;;2.73;2.53;;;21.10;43.40;;;;;;10493370;28;20236;-76
2021/06/24 04:02:25;;;;;;;2.30;2.10;;;21.10;43.80;;;;;;10472598;28;20264;-75
2021/06/24 04:07:29;;;;;;;2.70;2.50;;;21.00;43.40;;;;;;10451226;28;20710;-75
2021/06/24 04:12:33;;;;;;;2.53;2.33;;;21.00;43.50;;;;;;10463706;28;20228;-75
2021/06/24 04:17:37;;;;;;;3.13;2.83;;;21.00;44.00;;;;;;10492041;28;20232;-75
2021/06/24 04:22:40;;;;;;;2.40;2.20;;;21.10;43.70;;;;;;10492059;28;20680;-76
2021/06/24 04:27:45;;;;;;;3.10;2.43;;;21.10;43.60;;;;;;10491457;28;20228;-74
2021/06/24 04:32:50;;;;;;;3.30;2.93;;;21.10;44.00;;;;;;10491756;28;20224;-75
2021/06/24 04:37:54;;;;;;;3.43;2.80;;;21.20;43.50;;;;;;10491571;28;20232;-74
2021/06/24 04:42:58;;;;;;;5.70;2.97;;;21.10;43.40;;;;;;10466268;28;20229;-75
2021/06/24 04:48:07;;;;;;;3.00;2.80;;;21.10;43.90;;;;;;10449775;28;20229;-75
2021/06/24 04:53:10;;;;;;;4.33;3.60;;;21.10;43.80;;;;;;10466221;28;20242;-75
2021/06/24 04:58:14;;;;;;;4.30;3.93;;;21.10;43.80;;;;;;10467957;28;20224;-75
2021/06/24 05:03:18;;;;;;;4.47;3.90;;;21.10;44.00;;;;;;10482610;28;20230;-75
2021/06/24 05:08:23;;;;;;;4.17;3.87;;;21.10;43.90;;;;;;10454595;28;20239;-74
2021/06/24 05:13:27;;;;;;;4.23;3.90;;;21.10;43.90;;;;;;10448982;28;20232;-75
2021/06/24 05:18:31;;;;;;;4.33;3.93;;;21.10;44.30;;;;;;10453229;28;20224;-75
2021/06/24 05:23:34;;;;;;;3.97;3.67;;;21.10;44.20;;;;;;10468945;28;20236;-75
2021/06/24 05:28:39;;;;;;;4.17;3.83;;;21.10;44.30;;;;;;10474039;28;20345;-74
2021/06/24 05:33:42;;;;;;;3.67;3.37;;;21.10;44.50;;;;;;10479453;28;20226;-75
2021/06/24 05:38:45;;;;;;;4.00;3.70;;;21.10;43.80;;;;;;10491165;28;20226;-75
2021/06/24 05:43:50;;;;;;;3.90;3.60;;;21.20;43.80;;;;;;10473416;28;20246;-75
2021/06/24 05:48:53;;;;;;;3.93;3.63;;;21.10;43.90;;;;;;10490267;28;20229;-75
2021/06/24 05:53:56;;;;;;;4.13;3.83;;;21.10;43.90;;;;;;10457317;28;20233;-75
2021/06/24 05:59:03;;;;;;;3.80;3.50;;;21.10;44.10;;;;;;10476411;28;20231;-75
2021/06/24 06:04:06;;;;;;;3.33;3.13;;;21.10;44.60;;;;;;10464778;28;20569;-75
2021/06/24 06:09:10;;;;;;;3.73;3.43;;;21.10;44.10;;;;;;10485663;28;20224;-74
2021/06/24 06:14:15;;;;;;;4.00;3.70;;;21.20;44.60;;;;;;10471671;28;20224;-75
2021/06/24 06:19:18;;;;;;;3.67;3.37;;;21.20;44.50;;;;;;10468775;28;20328;-75
2021/06/24 06:24:21;;;;;;;3.80;3.50;;;21.20;44.20;;;;;;10468584;28;20235;-74
2021/06/24 06:29:26;;;;;;;3.40;3.20;;;21.20;44.40;;;;;;10489909;28;20719;-75
2021/06/24 06:34:29;;;;;;;3.20;3.00;;;21.30;44.50;;;;;;10476642;28;20345;-75
2021/06/24 06:39:32;;;;;;;2.83;2.63;;;21.40;44.50;;;;;;10459037;28;20345;-76
2021/06/24 06:44:37;;;;;;;3.13;2.83;;;21.50;44.20;;;;;;10470479;28;20217;-77
2021/06/24 06:49:40;;;;;;;2.20;2.00;;;21.60;44.40;;;;;;10484393;28;20235;-74
2021/06/24 06:54:43;;;;;;;2.17;2.03;;;21.70;44.20;;;;;;10495299;28;20307;-76
2021/06/24 06:59:48;;;;;;;2.30;2.20;;;21.80;44.30;;;;;;10495323;28;20235;-76
2021/06/24 07:04:51;;;;;;;2.50;2.30;;;21.90;44.40;;;;;;10480240;28;20226;-76
2021/06/24 07:09:55;;;;;;;2.83;2.40;;;22.10;44.00;;;;;;10460296;28;20228;-75
2021/06/24 07:14:59;;;;;;;2.70;2.50;;;22.20;44.20;;;;;;10472522;28;20235;-75
2021/06/24 07:20:04;;;;;;;2.40;2.30;;;22.40;44.10;;;;;;10466520;28;20256;-74
2021/06/24 07:25:09;;;;;;;2.87;2.67;;;22.50;43.90;;;;;;10478530;28;20231;-75
2021/06/24 07:30:16;;;;;;;2.87;2.57;;;22.70;43.90;;;;;;10466343;28;20766;-75
2021/06/24 07:35:19;;;;;;;2.33;2.23;;;22.80;43.70;;;;;;10470017;28;20223;-72
2021/06/24 07:40:23;;;;;;;2.80;2.60;;;23.00;43.70;;;;;;10467094;28;20574;-77
2021/06/24 07:45:28;;;;;;;2.80;2.30;;;23.10;43.50;;;;;;10475743;28;20227;-76
2021/06/24 07:50:32;;;;;;;2.50;2.30;;;23.20;43.10;;;;;;10473596;28;20636;-76
2021/06/24 07:55:36;;;;;;;2.20;2.10;;;23.40;43.20;;;;;;10484931;28;20220;-77
2021/06/24 08:00:40;;;;;;;3.47;2.27;;;23.40;43.00;;;;;;10474925;28;20224;-74
2021/06/24 08:06:02;;;;;;;2.90;2.70;;;23.60;42.60;;;;;;10466966;28;20228;-73
2021/06/24 08:11:06;;;;;;;2.43;2.33;;;23.70;42.60;;;;;;10477342;28;20225;-75
2021/06/24 08:16:11;;;;;;;2.50;2.30;;;23.80;42.30;;;;;;10466612;28;20220;-75
2021/06/24 08:21:14;;;;;;;2.67;2.47;;;23.80;42.00;;;;;;10479900;28;20314;-75
2021/06/24 08:26:18;;;;;;;2.20;2.10;;;23.90;41.90;;;;;;10473730;28;20221;-75
2021/06/24 08:31:23;;;;;;;2.80;2.60;;;23.90;41.60;;;;;;10467805;28;20239;-74
2021/06/24 08:36:27;;;;;;;2.43;2.33;;;24.00;41.30;;;;;;10479674;28;20621;-76
2021/06/24 08:41:30;;;;;;;1.93;1.83;;;24.00;41.00;;;;;;10454160;28;20256;-76
2021/06/24 08:46:35;;;;;;;2.60;2.27;;;24.00;41.10;;;;;;10478597;28;20224;-76
2021/06/24 08:51:38;;;;;;;2.10;2.00;;;24.10;40.30;;;;;;10470807;28;20327;-75
2021/06/24 08:56:42;;;;;;;2.43;2.30;;;24.20;40.80;;;;;;10470548;28;20227;-75
2021/06/24 09:01:52;;;;;;;2.00;1.90;;;24.20;40.90;;;;;;10464374;28;20693;-75
2021/06/24 09:07:11;;;;;;;1.77;1.67;;;24.30;40.30;;;;;;10473051;28;20220;-76
2021/06/24 09:12:14;;;;;;;2.17;2.07;;;24.30;40.10;;;;;;10463575;28;20209;-75
2021/06/24 09:17:34;;;;;;;2.50;2.33;;;24.30;40.30;;;;;;10466577;28;20231;-76
2021/06/24 09:22:38;;;;;;;2.37;2.27;;;24.40;40.40;;;;;;10462694;28;20232;-75
2021/06/24 09:27:48;;;;;;;2.40;2.00;;;24.50;40.50;;;;;;10463356;28;20216;-74
2021/06/24 09:32:53;;;;;;;2.00;1.90;;;24.60;40.50;;;;;;10458910;28;20860;-74
2021/06/24 09:38:02;;;;;;;2.00;1.90;;;24.80;39.90;;;;;;10480822;28;20259;-74
2021/06/24 09:43:06;;;;;;;2.10;2.00;;;24.90;39.40;;;;;;10456422;28;20224;-71
2021/06/24 09:48:12;;;;;;;1.93;1.83;;;25.00;39.90;;;;;;10436056;22;20221;-72
2021/06/24 09:53:15;;;;;;;1.70;1.60;;;25.10;39.40;;;;;;10432268;28;20221;-76
2021/06/24 09:58:20;;;;;;;1.80;1.70;;;25.30;39.90;;;;;;10420507;28;20226;-73
2021/06/24 10:03:26;;;;;;;1.70;1.60;;;25.50;39.40;;;;;;10417027;28;20243;-72
2021/06/24 10:08:29;;;;;;;1.80;1.70;;;25.70;38.20;;;;;;10420665;28;20235;-74
2021/06/24 10:13:32;;;;;;;1.87;1.77;;;25.90;38.90;;;;;;10421099;28;20236;-76
2021/06/24 10:18:53;;;;;;;2.10;1.90;;;26.00;38.80;;;;;;10435357;28;20697;-76
2021/06/24 10:24:00;;;;;;;1.70;1.60;;;26.20;38.70;;;;;;10423349;28;20217;-76
2021/06/24 10:29:11;;;;;;;1.90;1.80;;;26.40;38.20;;;;;;10425222;28;20229;-77
2021/06/24 10:34:17;;;;;;;2.00;1.90;;;26.60;36.30;;;;;;10438232;28;20251;-77
2021/06/24 10:39:35;;;;;;;1.90;1.80;;;26.70;36.70;;;;;;10425546;28;20946;-76
2021/06/24 10:44:56;;;;;;;2.27;2.10;;;26.80;37.30;;;;;;10426588;28;20600;-78
2021/06/24 10:50:32;;;;;;;2.07;1.97;;;26.90;35.60;;;;;;10421855;28;20224;-80
2021/06/24 10:55:40;;;;;;;2.60;2.30;;;26.90;37.10;;;;;;10418413;28;20229;-78
2021/06/24 11:00:45;;;;;;;2.27;2.17;;;26.90;36.40;;;;;;10421473;28;20226;-75
2021/06/24 11:05:50;;;;;;;2.20;2.10;;;27.00;36.50;;;;;;10431070;28;20221;-76
2021/06/24 11:10:57;;;;;;;2.37;2.17;;;26.90;36.00;;;;;;10425255;28;20220;-78
2021/06/24 11:16:00;;;;;;;2.30;2.20;;;26.90;34.80;;;;;;10433563;28;20240;-76
2021/06/24 11:21:06;;;;;;;2.33;2.13;;;26.90;36.40;;;;;;10426805;28;20224;-77
2021/06/24 11:26:12;;;;;;;2.00;1.90;;;27.00;35.30;;;;;;10429600;28;20717;-79
2021/06/24 11:31:18;;;;;;;2.80;2.50;;;27.00;33.90;;;;;;10419282;28;20227;-78
2021/06/24 11:36:22;;;;;;;3.30;3.10;;;27.10;35.00;;;;;;10428510;28;20291;-78
2021/06/24 11:41:26;;;;;;;3.17;2.90;;;27.10;35.50;;;;;;10418352;28;20229;-76
2021/06/24 11:46:32;;;;;;;3.60;3.30;;;27.10;35.50;;;;;;10434331;28;20235;-76
2021/06/24 12:07:51;;;;;;;4.10;3.80;;;27.40;34.70;;;;;;10409045;28;20232;-75
2021/06/24 12:12:56;;;;;;;4.33;4.03;;;27.50;35.00;;;;;;10420388;28;20739;-77
2021/06/24 12:17:59;;;;;;;4.30;4.00;;;27.50;33.50;;;;;;10417026;28;20233;-76
2021/06/24 12:23:05;;;;;;;3.57;3.37;;;27.60;34.20;;;;;;10423182;28;20221;-77
2021/06/24 12:28:12;;;;;;;3.87;3.67;;;27.70;34.30;;;;;;10429935;28;20235;-78
2021/06/24 12:33:16;;;;;;;4.10;3.80;;;27.90;32.40;;;;;;10421629;28;20716;-79
2021/06/24 12:38:23;;;;;;;4.50;4.20;;;27.90;32.80;;;;;;10423632;28;20225;-76
2021/06/24 12:43:29;;;;;;;3.97;3.67;;;28.00;32.70;;;;;;10430604;28;21905;-78
2021/06/24 12:48:34;;;;;;;4.07;3.27;;;28.00;32.90;;;;;;10425726;28;20227;-77
2021/06/24 12:53:40;;;;;;;3.30;3.10;;;28.10;32.20;;;;;;10434418;28;20620;-78
2021/06/24 12:58:45;;;;;;;3.50;3.30;;;28.10;32.90;;;;;;10431941;28;20230;-77
2021/06/24 13:03:50;;;;;;;3.10;2.87;;;28.20;32.50;;;;;;10426559;28;20741;-76
2021/06/24 13:09:04;;;;;;;3.10;2.90;;;28.30;31.40;;;;;;10430961;28;20643;-76
2021/06/24 13:14:13;;;;;;;3.00;2.80;;;28.40;31.40;;;;;;10422501;28;20275;-72
2021/06/24 13:19:24;;;;;;;3.10;2.90;;;28.40;30.90;;;;;;10426189;28;20224;-78
2021/06/24 13:24:34;;;;;;;3.33;3.13;;;28.50;30.50;;;;;;10417013;28;20235;-75
2021/06/24 13:29:40;;;;;;;3.70;3.40;;;28.50;31.40;;;;;;10423274;28;20251;-77
2021/06/24 13:34:43;;;;;;;3.23;3.03;;;28.50;30.50;;;;;;10425799;28;20594;-79
2021/06/24 13:39:47;;;;;;;3.23;3.00;;;28.50;30.90;;;;;;10423947;28;20290;-79
2021/06/24 13:44:52;;;;;;;3.70;3.40;;;28.40;30.50;;;;;;10420860;28;20236;-77
2021/06/24 13:49:55;;;;;;;3.67;3.47;;;28.40;30.50;;;;;;10425831;28;20222;-77
2021/06/24 13:55:00;;;;;;;3.63;3.33;;;28.50;30.90;;;;;;10414966;28;20226;-77
2021/06/24 14:00:06;;;;;;;3.47;3.27;;;28.60;31.00;;;;;;10425721;28;20210;-79
2021/06/24 14:05:11;;;;;;;3.17;2.97;;;28.60;30.20;;;;;;10436976;28;20233;-77
2021/06/24 14:10:15;;;;;;;2.83;2.63;;;28.70;30.60;;;;;;10424594;28;20273;-77
2021/06/24 14:15:20;;;;;;;3.03;2.83;;;28.80;30.70;;;;;;10421568;28;20221;-77
2021/06/24 14:20:24;;;;;;;3.00;2.80;;;28.90;30.80;;;;;;10432020;28;20221;-75
2021/06/24 14:25:27;;;;;;;2.70;2.50;;;28.90;30.80;;;;;;10435998;28;20226;-75
2021/06/24 14:30:32;;;;;;;2.23;2.13;;;29.00;30.50;;;;;;10427845;28;20740;-76
2021/06/24 14:35:37;;;;;;;2.40;2.30;;;29.10;29.00;;;;;;10435379;28;20225;-72
2021/06/24 14:40:41;;;;;;;2.30;2.20;;;29.20;29.30;;;;;;10425718;28;20228;-74
2021/06/24 14:45:46;;;;;;;1.90;1.80;;;29.10;29.10;;;;;;10426156;28;20222;-74
2021/06/24 14:50:49;;;;;;;2.30;2.10;;;29.00;28.80;;;;;;10430127;28;20217;-73
2021/06/24 14:55:53;;;;;;;2.10;1.90;;;28.90;29.00;;;;;;10421939;28;20727;-73
2021/06/24 15:00:58;;;;;;;1.73;1.63;;;28.80;29.30;;;;;;10426799;28;20236;-73
2021/06/24 15:06:02;;;;;;;1.40;1.40;;;28.70;29.30;;;;;;10432406;28;20225;-73
2021/06/24 15:11:05;;;;;;;1.60;1.60;;;28.80;29.60;;;;;;10420099;28;20224;-74
2021/06/24 15:16:10;;;;;;;1.90;1.80;;;28.90;29.40;;;;;;10428494;28;20255;-75
2021/06/24 15:21:13;;;;;;;2.00;1.70;;;28.90;28.70;;;;;;10424274;28;20226;-75
2021/06/24 15:26:18;;;;;;;2.00;1.90;;;28.90;29.20;;;;;;10429543;28;20231;-77
2021/06/24 15:31:23;;;;;;;1.40;1.40;;;28.80;28.80;;;;;;10425289;28;21293;-77
2021/06/24 15:36:26;;;;;;;2.30;1.90;;;28.70;28.80;;;;;;10426963;28;20236;-77
2021/06/24 15:41:32;;;;;;;1.87;1.77;;;28.60;29.20;;;;;;10423697;28;20218;-77
2021/06/24 15:46:37;;;;;;;1.70;1.60;;;28.50;29.20;;;;;;10431648;28;20230;-77
2021/06/24 15:51:42;;;;;;;2.27;1.80;;;28.30;28.90;;;;;;10428142;28;20628;-77
2021/06/24 15:56:46;;;;;;;1.80;1.70;;;28.20;29.70;;;;;;10430938;28;20256;-79
2021/06/24 16:01:50;;;;;;;1.73;1.63;;;28.20;30.30;;;;;;10428118;28;20220;-78
2021/06/24 16:06:54;;;;;;;2.83;1.70;;;28.10;30.30;;;;;;10426119;28;20592;-79
2021/06/24 16:12:00;;;;;;;1.70;1.60;;;28.10;30.80;;;;;;10432060;28;20241;-77
2021/06/24 16:17:05;;;;;;;1.97;1.77;;;28.00;30.40;;;;;;10429545;28;20224;-77
2021/06/24 16:22:09;;;;;;;1.90;1.67;;;27.80;31.00;;;;;;10419930;28;20300;-78
2021/06/24 16:27:13;;;;;;;1.70;1.60;;;27.40;31.30;;;;;;10423784;28;20229;-77
2021/06/24 16:32:17;;;;;;;1.77;1.67;;;27.10;31.80;;;;;;10431281;28;20217;-78
2021/06/24 16:37:21;;;;;;;1.80;1.70;;;26.70;32.60;;;;;;10432035;28;20659;-79
2021/06/24 16:42:24;;;;;;;1.73;1.63;;;26.40;33.10;;;;;;10427856;28;20236;-79
2021/06/24 16:47:29;;;;;;;2.10;1.90;;;26.20;33.80;;;;;;10417962;28;20231;-80
2021/06/24 16:52:39;;;;;;;2.27;1.80;;;26.00;34.80;;;;;;10435302;28;20582;-79
2021/06/24 16:57:43;;;;;;;2.00;1.70;;;25.80;35.50;;;;;;10420376;28;20230;-79
2021/06/24 17:02:48;;;;;;;2.17;2.03;;;25.70;35.20;;;;;;10418246;28;20228;-79
2021/06/24 17:07:51;;;;;;;2.60;2.10;;;25.70;35.90;;;;;;10419981;28;20221;-79
2021/06/24 17:12:55;;;;;;;2.47;2.20;;;25.80;35.70;;;;;;10423747;28;20233;-79
2021/06/24 17:18:00;;;;;;;2.27;2.07;;;25.70;35.70;;;;;;10419360;28;20225;-79
2021/06/24 17:23:03;;;;;;;5.33;2.20;;;25.60;36.50;;;;;;10429563;28;20216;-79
2021/06/24 17:28:06;;;;;;;3.10;2.00;;;25.50;36.50;;;;;;10423445;28;20217;-79
2021/06/24 17:33:11;;;;;;;2.20;1.97;;;25.50;36.40;;;;;;10417927;28;20685;-80
2021/06/24 17:38:15;;;;;;;2.17;2.03;;;25.40;37.00;;;;;;10425914;28;20754;-77
2021/06/24 17:43:18;;;;;;;2.20;2.10;;;25.40;36.80;;;;;;10424020;28;20225;-77
2021/06/24 17:48:23;;;;;;;2.80;2.60;;;25.30;36.70;;;;;;10435781;28;20242;-77
2021/06/24 17:53:26;;;;;;;2.33;2.13;;;25.20;37.00;;;;;;10434352;28;20227;-77
2021/06/24 17:58:29;;;;;;;3.60;2.77;;;25.10;37.50;;;;;;10432334;28;20733;-77
2021/06/24 18:03:34;;;;;;;3.37;2.37;;;25.00;36.90;;;;;;10434810;28;20232;-77
2021/06/24 18:08:38;;;;;;;2.40;2.20;;;24.90;37.70;;;;;;10427709;28;20256;-77
2021/06/24 18:13:41;;;;;;;2.37;2.17;;;24.90;37.90;;;;;;10422820;28;20214;-77
2021/06/24 18:18:46;;;;;;;2.77;2.57;;;25.00;38.10;;;;;;10418427;28;20228;-77
2021/06/24 18:23:50;;;;;;;3.27;2.70;;;25.10;38.60;;;;;;10426566;28;20225;-78
2021/06/24 18:28:53;;;;;;;2.77;2.57;;;25.10;37.90;;;;;;10426487;28;20236;-78
2021/06/24 18:33:58;;;;;;;2.17;2.00;;;25.10;38.10;;;;;;10420595;28;20217;-78
2021/06/24 18:39:04;;;;;;;2.90;1.80;;;25.10;38.40;;;;;;10433471;28;20236;-80
2021/06/24 18:44:08;;;;;;;2.23;1.40;;;24.90;35.80;;;;;;10430559;28;20233;-79
2021/06/24 18:49:12;;;;;;;2.83;1.20;;;24.60;35.20;;;;;;10431895;28;20224;-82
2021/06/24 18:54:15;;;;;;;2.13;0.90;;;24.10;33.90;;;;;;10425609;28;20248;-80
2021/06/24 18:59:19;;;;;;;1.30;1.20;;;23.30;34.20;;;;;;10422650;28;20308;-80
2021/06/24 19:04:23;;;;;;;0.80;0.80;;;22.60;34.70;;;;;;10416612;28;20702;-82
2021/06/24 19:09:27;;;;;;;1.67;1.00;;;21.90;35.00;;;;;;10422223;28;20231;-82
2021/06/24 19:14:30;;;;;;;1.67;1.07;;;21.50;35.90;;;;;;10427969;28;20601;-80
2021/06/24 19:19:35;;;;;;;2.17;1.10;;;21.20;36.90;;;;;;10427795;28;20228;-83
2021/06/24 19:24:39;;;;;;;1.33;1.10;;;21.10;37.50;;;;;;10430841;28;20247;-80
2021/06/24 19:29:42;;;;;;;1.10;1.00;;;21.20;37.60;;;;;;10423174;28;20259;-80
2021/06/24 19:34:47;;;;;;;2.60;1.10;;;21.20;37.60;;;;;;10419589;28;20228;-87
2021/06/24 19:39:50;;;;;;;1.60;1.00;;;21.20;37.60;;;;;;10417617;28;20321;-82
2021/06/24 19:44:53;;;;;;;1.10;1.00;;;21.30;37.60;;;;;;10421529;28;20886;-83
2021/06/24 19:49:58;;;;;;;1.37;1.27;;;21.40;37.50;;;;;;10417551;28;20223;-80
2021/06/24 19:55:02;;;;;;;1.30;1.10;;;21.30;37.60;;;;;;10415542;28;20743;-79
2021/06/24 20:00:07;;;;;;;1.10;1.03;;;21.00;37.40;;;;;;10415991;28;20231;-85
2021/06/24 20:05:15;;;;;;;1.20;0.90;;;20.70;37.10;;;;;;10421476;28;20226;-80
2021/06/24 20:10:19;;;;;;;1.10;1.00;;;20.40;38.30;;;;;;10411102;28;20227;-79
2021/06/24 20:15:23;;;;;;;1.00;0.90;;;20.00;38.00;;;;;;10422626;28;20234;-80
2021/06/24 20:20:28;;;;;;;1.50;1.10;;;20.10;38.70;;;;;;10431015;28;20230;-80
2021/06/24 20:25:32;;;;;;;1.23;1.13;;;20.10;40.00;;;;;;10423799;28;20244;-79
2021/06/24 20:30:36;;;;;;;1.50;0.90;;;20.20;39.40;;;;;;10417687;28;20248;-79
2021/06/24 20:35:40;;;;;;;1.47;1.20;;;20.30;38.80;;;;;;10424345;28;20228;-78
2021/06/24 20:40:46;;;;;;;1.47;1.30;;;20.30;39.10;;;;;;10416331;28;20228;-79
2021/06/24 20:45:49;;;;;;;1.10;0.93;;;20.20;39.20;;;;;;10423155;28;20225;-80
2021/06/24 20:50:54;;;;;;;1.53;1.30;;;20.10;39.50;;;;;;10425346;28;20252;-80
2021/06/24 20:55:57;;;;;;;1.47;1.03;;;20.00;40.40;;;;;;10425448;28;20232;-80
2021/06/24 21:01:03;;;;;;;1.37;1.27;;;20.00;40.10;;;;;;10437713;28;20231;-80
2021/06/24 21:06:09;;;;;;;1.10;1.10;;;19.90;40.60;;;;;;10435132;28;20715;-81
2021/06/24 21:11:12;;;;;;;1.83;1.23;;;19.70;41.60;;;;;;10430956;28;20217;-80
2021/06/24 21:16:29;;;;;;;1.30;1.20;;;19.60;41.10;;;;;;10432836;28;21306;-81
2021/06/24 21:21:36;;;;;;;1.57;1.20;;;19.60;41.50;;;;;;10438044;28;20226;-80
2021/06/24 21:26:40;;;;;;;1.00;0.90;;;19.50;42.60;;;;;;10432484;28;20218;-81
2021/06/24 21:31:43;;;;;;;1.40;0.97;;;19.50;42.20;;;;;;10440588;28;20241;-82
2021/06/24 21:36:48;;;;;;;0.97;0.97;;;19.50;42.60;;;;;;10429517;28;20226;-80
2021/06/24 21:41:52;;;;;;;1.10;1.00;;;19.40;43.70;;;;;;10425960;28;20227;-80
2021/06/24 21:46:55;;;;;;;3.37;1.00;;;19.40;43.20;;;;;;10424432;28;20222;-79
2021/06/24 21:52:00;;;;;;;0.90;0.90;;;19.40;43.30;;;;;;10430099;28;20857;-79
2021/06/24 21:57:04;;;;;;;0.90;0.80;;;19.40;44.40;;;;;;10422339;28;20221;-75
2021/06/24 22:02:07;;;;;;;0.97;0.97;;;19.30;43.70;;;;;;10429478;28;20224;-75
2021/06/24 22:07:12;;;;;;;0.80;0.80;;;19.40;43.80;;;;;;10420922;28;20240;-75
2021/06/24 22:12:15;;;;;;;1.77;0.70;;;19.30;44.70;;;;;;10417117;28;20701;-75
2021/06/24 22:17:19;;;;;;;0.97;0.90;;;19.20;44.50;;;;;;10417919;28;20233;-75
2021/06/24 22:22:23;;;;;;;1.10;1.00;;;19.20;44.00;;;;;;10426139;28;20241;-75
2021/06/24 22:27:27;;;;;;;0.90;0.90;;;19.20;44.80;;;;;;10428068;28;20944;-75
2021/06/24 22:32:30;;;;;;;1.07;1.00;;;19.20;44.00;;;;;;10435431;28;20220;-75
2021/06/24 22:37:36;;;;;;;0.80;0.70;;;19.20;44.10;;;;;;10421424;28;20236;-75
2021/06/24 22:42:41;;;;;;;2.17;1.00;;;19.20;44.90;;;;;;10435988;28;20232;-75
2021/06/24 22:47:45;;;;;;;0.90;0.90;;;19.30;44.00;;;;;;10432504;28;20622;-75
2021/06/24 22:52:50;;;;;;;0.87;0.87;;;19.40;43.90;;;;;;10429797;28;20731;-75
2021/06/24 22:57:53;;;;;;;0.77;0.77;;;19.40;44.00;;;;;;10427325;28;20234;-78
2021/06/24 23:02:56;;;;;;;0.80;0.80;;;19.40;43.30;;;;;;10432067;28;20239;-77
2021/06/24 23:08:01;;;;;;;1.47;0.90;;;19.50;43.30;;;;;;10423538;28;20225;-78
2021/06/24 23:13:04;;;;;;;1.10;0.67;;;19.40;43.90;;;;;;10419195;28;20238;-77
2021/06/24 23:18:08;;;;;;;0.73;0.73;;;19.40;43.60;;;;;;10433782;28;20218;-78
2021/06/24 23:23:12;;;;;;;1.63;1.20;;;19.30;43.80;;;;;;10423661;28;20213;-78
2021/06/24 23:28:16;;;;;;;0.60;0.60;;;19.30;44.60;;;;;;10426745;28;20220;-79
2021/06/24 23:33:19;;;;;;;1.27;0.80;;;19.40;44.00;;;;;;10429390;28;20229;-78
2021/06/24 23:38:24;;;;;;;0.80;0.80;;;19.40;43.90;;;;;;10422885;28;20756;-78
2021/06/24 23:43:27;;;;;;;0.87;0.87;;;19.40;44.60;;;;;;10422847;28;20225;-78
2021/06/24 23:48:30;;;;;;;1.07;0.83;;;19.30;44.10;;;;;;10423928;28;20228;-78
2021/06/24 23:53:35;;;;;;;1.27;1.00;;;19.30;44.20;;;;;;10431772;28;20636;-78
2021/06/24 23:58:38;;;;;;;0.87;0.80;;;19.20;44.80;;;;;;10424341;28;20218;-78
